GLO1373 SBBR-SBFZ
Flight info
| Callsign | GLO1373 |
|---|---|
| Flight time | N/A |
| Altitude | 39000 |
| Route | EPDEP UZ60 DOTKU |
| Aircraft | B738/M-SDFGIKLORWXY/LB1 |
Departure
| Time | N/A |
|---|---|
| Airport | Presidente Juscelino Kubitschek International Airport (SBBR) |
Arrival
| Time | 2026-05-08 03:03 |
|---|---|
| Airport | Pinto Martins International Airport (SBFZ) |
| Time | Latitude | Longitude | Altitude | Speed | Heading |
|---|---|---|---|---|---|
| 2026-05-08 02:04 | -9.00868 | -42.50883 | 36998 ft | 475 kts | 36° |
| 2026-05-08 02:04 | -8.98195 | -42.48852 | 37003 ft | 475 kts | 36° |
| 2026-05-08 02:05 | -8.92910 | -42.44838 | 36998 ft | 475 kts | 36° |
| 2026-05-08 02:05 | -8.88525 | -42.41510 | 36997 ft | 475 kts | 35° |
| 2026-05-08 02:06 | -8.82377 | -42.36847 | 36994 ft | 474 kts | 35° |
| 2026-05-08 02:06 | -8.77985 | -42.33515 | 36989 ft | 474 kts | 35° |
| 2026-05-08 02:07 | -8.72700 | -42.29508 | 36993 ft | 474 kts | 35° |
| 2026-05-08 02:07 | -8.67419 | -42.25503 | 36995 ft | 474 kts | 35° |
| 2026-05-08 02:08 | -8.62131 | -42.21496 | 36992 ft | 474 kts | 35° |
| 2026-05-08 02:08 | -8.56852 | -42.17496 | 36987 ft | 474 kts | 35° |
| 2026-05-08 02:09 | -8.51565 | -42.13492 | 36988 ft | 474 kts | 35° |
| 2026-05-08 02:09 | -8.46326 | -42.09526 | 36987 ft | 474 kts | 35° |
| 2026-05-08 02:10 | -8.41049 | -42.05532 | 36984 ft | 474 kts | 35° |
| 2026-05-08 02:10 | -8.35762 | -42.01532 | 36978 ft | 474 kts | 35° |
| 2026-05-08 02:11 | -8.30485 | -41.97541 | 36986 ft | 473 kts | 35° |
| 2026-05-08 02:11 | -8.25248 | -41.93582 | 36983 ft | 473 kts | 35° |
| 2026-05-08 02:12 | -8.19970 | -41.89592 | 36976 ft | 473 kts | 35° |
| 2026-05-08 02:12 | -8.14710 | -41.85619 | 36978 ft | 472 kts | 34° |
| 2026-05-08 02:13 | -8.09479 | -41.81668 | 36978 ft | 472 kts | 34° |
| 2026-05-08 02:13 | -8.04222 | -41.77699 | 36984 ft | 471 kts | 34° |
| 2026-05-08 02:14 | -7.98979 | -41.73741 | 36973 ft | 471 kts | 34° |
| 2026-05-08 02:14 | -7.93725 | -41.69778 | 36977 ft | 470 kts | 34° |
| 2026-05-08 02:15 | -7.88484 | -41.65824 | 36978 ft | 470 kts | 34° |
| 2026-05-08 02:15 | -7.83242 | -41.61872 | 36976 ft | 470 kts | 34° |
| 2026-05-08 02:16 | -7.78037 | -41.57949 | 36978 ft | 470 kts | 34° |
| 2026-05-08 02:16 | -7.72789 | -41.53994 | 36977 ft | 470 kts | 34° |
| 2026-05-08 02:17 | -7.67551 | -41.50048 | 36981 ft | 470 kts | 34° |
| 2026-05-08 02:17 | -7.62308 | -41.46100 | 36980 ft | 470 kts | 34° |
| 2026-05-08 02:18 | -7.57106 | -41.42183 | 36963 ft | 470 kts | 34° |
| 2026-05-08 02:18 | -7.51863 | -41.38238 | 36980 ft | 469 kts | 34° |
| 2026-05-08 02:19 | -7.46628 | -41.34299 | 36974 ft | 469 kts | 34° |
| 2026-05-08 02:19 | -7.41381 | -41.30352 | 36977 ft | 469 kts | 34° |
| 2026-05-08 02:20 | -7.36178 | -41.26441 | 36981 ft | 469 kts | 34° |
| 2026-05-08 02:20 | -7.30944 | -41.22506 | 36976 ft | 468 kts | 34° |
| 2026-05-08 02:21 | -7.25709 | -41.18572 | 36985 ft | 468 kts | 34° |
| 2026-05-08 02:21 | -7.20488 | -41.14650 | 36978 ft | 468 kts | 34° |
| 2026-05-08 02:22 | -7.15297 | -41.10751 | 36984 ft | 468 kts | 34° |
| 2026-05-08 02:22 | -7.10069 | -41.06826 | 36990 ft | 467 kts | 34° |
| 2026-05-08 02:23 | -7.04848 | -41.02907 | 36996 ft | 467 kts | 34° |
| 2026-05-08 02:23 | -6.99655 | -40.99011 | 36994 ft | 467 kts | 34° |
| 2026-05-08 02:24 | -6.94441 | -40.95099 | 36994 ft | 467 kts | 34° |
| 2026-05-08 02:24 | -6.89231 | -40.91192 | 37002 ft | 467 kts | 34° |
| 2026-05-08 02:25 | -6.84023 | -40.87286 | 37001 ft | 467 kts | 34° |
| 2026-05-08 02:25 | -6.78805 | -40.83375 | 37005 ft | 467 kts | 34° |
| 2026-05-08 02:26 | -6.73602 | -40.79474 | 37009 ft | 466 kts | 34° |
| 2026-05-08 02:26 | -6.68402 | -40.75580 | 37002 ft | 466 kts | 34° |
| 2026-05-08 02:27 | -6.63207 | -40.71690 | 37007 ft | 465 kts | 34° |
| 2026-05-08 02:27 | -6.58015 | -40.67803 | 37016 ft | 464 kts | 34° |
| 2026-05-08 02:28 | -6.52835 | -40.63924 | 37009 ft | 464 kts | 34° |
| 2026-05-08 02:28 | -6.47694 | -40.60076 | 37008 ft | 463 kts | 34° |
| 2026-05-08 02:29 | -6.42524 | -40.56207 | 37005 ft | 463 kts | 34° |
| 2026-05-08 02:29 | -6.37355 | -40.52339 | 37003 ft | 462 kts | 34° |
| 2026-05-08 02:30 | -6.32199 | -40.48482 | 36999 ft | 461 kts | 34° |
| 2026-05-08 02:30 | -6.27039 | -40.44623 | 36994 ft | 461 kts | 34° |
| 2026-05-08 02:31 | -6.21927 | -40.40801 | 36999 ft | 460 kts | 34° |
| 2026-05-08 02:31 | -6.16774 | -40.36950 | 36996 ft | 460 kts | 34° |
| 2026-05-08 02:32 | -6.11638 | -40.33112 | 36996 ft | 460 kts | 34° |
| 2026-05-08 02:32 | -6.06535 | -40.29299 | 36997 ft | 459 kts | 34° |
| 2026-05-08 02:33 | -6.01412 | -40.25471 | 36995 ft | 459 kts | 34° |
| 2026-05-08 02:33 | -5.96279 | -40.21639 | 36995 ft | 459 kts | 34° |
| 2026-05-08 02:34 | -5.91163 | -40.17821 | 36997 ft | 458 kts | 34° |
| 2026-05-08 02:34 | -5.86041 | -40.13999 | 36995 ft | 458 kts | 34° |
| 2026-05-08 02:35 | -5.80921 | -40.10178 | 36994 ft | 458 kts | 34° |
| 2026-05-08 02:35 | -5.75804 | -40.06361 | 36992 ft | 457 kts | 34° |
| 2026-05-08 02:36 | -5.70733 | -40.02577 | 36994 ft | 457 kts | 34° |
| 2026-05-08 02:36 | -5.65631 | -39.98773 | 36993 ft | 457 kts | 34° |
| 2026-05-08 02:37 | -5.60523 | -39.94964 | 36994 ft | 456 kts | 34° |
| 2026-05-08 02:37 | -5.55429 | -39.91166 | 36998 ft | 456 kts | 34° |
| 2026-05-08 02:38 | -5.50343 | -39.87376 | 36993 ft | 455 kts | 34° |
| 2026-05-08 02:38 | -5.47799 | -39.85481 | 36748 ft | 459 kts | 34° |
| 2026-05-08 02:38 | -5.45217 | -39.83558 | 36254 ft | 461 kts | 34° |
| 2026-05-08 02:39 | -5.42649 | -39.81645 | 35673 ft | 460 kts | 34° |
| 2026-05-08 02:39 | -5.40075 | -39.79727 | 35056 ft | 461 kts | 34° |
| 2026-05-08 02:39 | -5.37494 | -39.77805 | 34405 ft | 463 kts | 34° |
| 2026-05-08 02:39 | -5.34900 | -39.75873 | 33703 ft | 465 kts | 34° |
| 2026-05-08 02:40 | -5.32291 | -39.73930 | 32975 ft | 467 kts | 34° |
| 2026-05-08 02:40 | -5.29708 | -39.72006 | 32280 ft | 468 kts | 34° |
| 2026-05-08 02:40 | -5.27091 | -39.70057 | 31709 ft | 467 kts | 34° |
| 2026-05-08 02:40 | -5.24489 | -39.68119 | 31174 ft | 465 kts | 34° |
| 2026-05-08 02:41 | -5.21904 | -39.66195 | 30677 ft | 462 kts | 34° |
| 2026-05-08 02:41 | -5.19324 | -39.64274 | 30162 ft | 460 kts | 34° |
| 2026-05-08 02:41 | -5.16757 | -39.62363 | 29593 ft | 457 kts | 34° |
| 2026-05-08 02:41 | -5.14215 | -39.60471 | 29063 ft | 454 kts | 34° |
| 2026-05-08 02:42 | -5.11691 | -39.58593 | 28540 ft | 450 kts | 34° |
| 2026-05-08 02:42 | -5.09190 | -39.56732 | 28031 ft | 446 kts | 34° |
| 2026-05-08 02:42 | -5.06702 | -39.54881 | 27527 ft | 442 kts | 34° |
| 2026-05-08 02:42 | -5.04263 | -39.53066 | 27046 ft | 439 kts | 34° |
| 2026-05-08 02:43 | -5.01821 | -39.51250 | 26541 ft | 436 kts | 34° |
| 2026-05-08 02:43 | -4.99393 | -39.49445 | 26033 ft | 433 kts | 34° |
| 2026-05-08 02:43 | -4.96975 | -39.47647 | 25530 ft | 430 kts | 34° |
| 2026-05-08 02:43 | -4.94581 | -39.45867 | 25040 ft | 428 kts | 34° |
| 2026-05-08 02:44 | -4.92199 | -39.44095 | 24551 ft | 425 kts | 34° |
| 2026-05-08 02:44 | -4.89826 | -39.42332 | 24052 ft | 422 kts | 34° |
| 2026-05-08 02:44 | -4.87472 | -39.40582 | 23558 ft | 420 kts | 34° |
| 2026-05-08 02:44 | -4.85129 | -39.38840 | 22991 ft | 417 kts | 35° |
| 2026-05-08 02:45 | -4.82806 | -39.37114 | 22483 ft | 413 kts | 35° |
| 2026-05-08 02:45 | -4.80505 | -39.35403 | 21987 ft | 409 kts | 35° |
| 2026-05-08 02:45 | -4.78234 | -39.33715 | 21520 ft | 405 kts | 35° |
| 2026-05-08 02:45 | -4.75979 | -39.32040 | 21036 ft | 401 kts | 35° |
| 2026-05-08 02:46 | -4.73743 | -39.30379 | 20568 ft | 398 kts | 35° |
| 2026-05-08 02:46 | -4.71526 | -39.28732 | 20084 ft | 394 kts | 36° |
| 2026-05-08 02:46 | -4.69377 | -39.27135 | 19626 ft | 385 kts | 36° |
| 2026-05-08 02:46 | -4.67242 | -39.25548 | 19172 ft | 382 kts | 36° |
| 2026-05-08 02:47 | -4.65104 | -39.23960 | 18709 ft | 380 kts | 36° |
| 2026-05-08 02:47 | -4.62981 | -39.22384 | 18255 ft | 379 kts | 36° |
| 2026-05-08 02:47 | -4.60860 | -39.20808 | 17747 ft | 378 kts | 36° |
| 2026-05-08 02:47 | -4.58753 | -39.19244 | 17283 ft | 375 kts | 36° |
| 2026-05-08 02:48 | -4.56667 | -39.17695 | 16837 ft | 372 kts | 36° |
| 2026-05-08 02:48 | -4.54590 | -39.16154 | 16385 ft | 369 kts | 37° |
| 2026-05-08 02:48 | -4.52547 | -39.14644 | 15952 ft | 367 kts | 37° |
| 2026-05-08 02:48 | -4.50500 | -39.13133 | 15510 ft | 365 kts | 37° |
| 2026-05-08 02:49 | -4.48463 | -39.11629 | 15073 ft | 363 kts | 37° |
| 2026-05-08 02:49 | -4.46438 | -39.10133 | 14627 ft | 361 kts | 37° |
| 2026-05-08 02:49 | -4.44417 | -39.08639 | 14190 ft | 360 kts | 37° |
| 2026-05-08 02:49 | -4.42401 | -39.07150 | 13745 ft | 359 kts | 37° |
| 2026-05-08 02:50 | -4.40402 | -39.05674 | 13271 ft | 357 kts | 37° |
| 2026-05-08 02:50 | -4.38334 | -39.04306 | 12828 ft | 355 kts | 31° |
| 2026-05-08 02:50 | -4.36180 | -39.03109 | 12393 ft | 353 kts | 29° |
| 2026-05-08 02:50 | -4.34023 | -39.01956 | 11965 ft | 350 kts | 30° |
| 2026-05-08 02:51 | -4.31899 | -39.00802 | 11554 ft | 348 kts | 30° |
| 2026-05-08 02:51 | -4.29791 | -38.99633 | 11146 ft | 345 kts | 31° |
| 2026-05-08 02:51 | -4.27700 | -38.98462 | 10735 ft | 343 kts | 31° |
| 2026-05-08 02:51 | -4.25629 | -38.97306 | 10522 ft | 333 kts | 31° |
| 2026-05-08 02:52 | -4.24308 | -38.96574 | 10415 ft | 325 kts | 31° |
| 2026-05-08 02:52 | -4.21730 | -38.95146 | 10221 ft | 313 kts | 31° |
| 2026-05-08 02:52 | -4.19844 | -38.94101 | 10087 ft | 305 kts | 31° |
| 2026-05-08 02:52 | -4.18603 | -38.93413 | 9998 ft | 300 kts | 32° |
| 2026-05-08 02:53 | -4.16829 | -38.92428 | 9943 ft | 289 kts | 32° |
| 2026-05-08 02:53 | -4.15037 | -38.91434 | 9457 ft | 295 kts | 32° |
| 2026-05-08 02:53 | -4.13245 | -38.90439 | 9108 ft | 295 kts | 32° |
| 2026-05-08 02:53 | -4.11459 | -38.89449 | 8788 ft | 292 kts | 32° |
| 2026-05-08 02:54 | -4.09631 | -38.88591 | 8506 ft | 291 kts | 23° |
| 2026-05-08 02:54 | -4.07736 | -38.87962 | 8222 ft | 290 kts | 20° |
| 2026-05-08 02:54 | -4.05793 | -38.87352 | 7927 ft | 289 kts | 20° |
| 2026-05-08 02:54 | -4.03906 | -38.86739 | 7640 ft | 288 kts | 21° |
| 2026-05-08 02:55 | -4.02004 | -38.86106 | 7340 ft | 287 kts | 21° |
| 2026-05-08 02:55 | -3.98384 | -38.84534 | 6774 ft | 279 kts | 38° |
| 2026-05-08 02:55 | -3.96823 | -38.83402 | 6532 ft | 276 kts | 39° |
| 2026-05-08 02:56 | -3.95274 | -38.82266 | 6270 ft | 274 kts | 39° |
| 2026-05-08 02:56 | -3.93755 | -38.81160 | 6019 ft | 272 kts | 39° |
| 2026-05-08 02:56 | -3.92220 | -38.80052 | 5762 ft | 271 kts | 39° |
| 2026-05-08 02:56 | -3.90691 | -38.78956 | 5511 ft | 269 kts | 38° |
| 2026-05-08 02:57 | -3.89176 | -38.77874 | 5258 ft | 267 kts | 38° |
| 2026-05-08 02:57 | -3.87670 | -38.76802 | 5043 ft | 264 kts | 38° |
| 2026-05-08 02:57 | -3.86186 | -38.75748 | 4807 ft | 263 kts | 38° |
| 2026-05-08 02:57 | -3.84702 | -38.74694 | 4568 ft | 261 kts | 38° |
| 2026-05-08 02:58 | -3.83223 | -38.73645 | 4325 ft | 260 kts | 38° |
| 2026-05-08 02:58 | -3.81647 | -38.72757 | 4067 ft | 262 kts | 22° |
| 2026-05-08 02:58 | -3.79906 | -38.72253 | 3842 ft | 258 kts | 17° |
| 2026-05-08 02:58 | -3.78194 | -38.71824 | 3608 ft | 250 kts | 17° |
| 2026-05-08 02:59 | -3.76536 | -38.71398 | 3374 ft | 242 kts | 17° |
| 2026-05-08 02:59 | -3.74981 | -38.70863 | 3167 ft | 231 kts | 37° |
| 2026-05-08 02:59 | -3.73975 | -38.69727 | 2950 ft | 213 kts | 70° |
| 2026-05-08 02:59 | -3.73661 | -38.68334 | 2729 ft | 200 kts | 91° |
| 2026-05-08 03:00 | -3.73839 | -38.66992 | 2517 ft | 191 kts | 105° |
| 2026-05-08 03:00 | -3.74180 | -38.65738 | 2277 ft | 182 kts | 107° |
| 2026-05-08 03:00 | -3.74511 | -38.64567 | 2079 ft | 167 kts | 106° |
| 2026-05-08 03:00 | -3.74815 | -38.63484 | 1861 ft | 157 kts | 105° |
| 2026-05-08 03:01 | -3.75104 | -38.62450 | 1678 ft | 152 kts | 105° |
| 2026-05-08 03:01 | -3.75383 | -38.61449 | 1492 ft | 151 kts | 106° |
| 2026-05-08 03:01 | -3.75659 | -38.60454 | 1334 ft | 149 kts | 107° |
| 2026-05-08 03:01 | -3.75934 | -38.59458 | 1126 ft | 147 kts | 107° |
| 2026-05-08 03:02 | -3.76207 | -38.58467 | 930 ft | 148 kts | 106° |
| 2026-05-08 03:02 | -3.76471 | -38.57487 | 773 ft | 144 kts | 107° |
| 2026-05-08 03:02 | -3.76742 | -38.56501 | 552 ft | 147 kts | 108° |
| 2026-05-08 03:02 | -3.77024 | -38.55512 | 330 ft | 147 kts | 107° |
| 2026-05-08 03:03 | -3.77285 | -38.54540 | 162 ft | 146 kts | 106° |
| 2026-05-08 03:03 | -3.77540 | -38.53595 | 88 ft | 127 kts | 106° |
| 2026-05-08 03:03 | -3.77714 | -38.52948 | 74 ft | 49 kts | 105° |
| 2026-05-08 03:03 | -3.77776 | -38.52719 | 73 ft | 23 kts | 105° |
| 2026-05-08 03:04 | -3.77835 | -38.52614 | 68 ft | 9 kts | 180° |
| 2026-05-08 03:04 | -3.77871 | -38.52658 | 73 ft | 8 kts | 244° |
| 2026-05-08 03:04 | -3.77895 | -38.52709 | 74 ft | 8 kts | 244° |
| 2026-05-08 03:04 | -3.77912 | -38.52761 | 73 ft | 8 kts | 270° |
| 2026-05-08 03:05 | -3.77902 | -38.52814 | 76 ft | 8 kts | 284° |
| 2026-05-08 03:05 | -3.77889 | -38.52864 | 74 ft | 7 kts | 285° |
| 2026-05-08 03:05 | -3.77873 | -38.52921 | 72 ft | 10 kts | 285° |
| 2026-05-08 03:05 | -3.77849 | -38.53010 | 76 ft | 16 kts | 285° |
| 2026-05-08 03:06 | -3.77817 | -38.53130 | 86 ft | 19 kts | 285° |
| 2026-05-08 03:06 | -3.77784 | -38.53253 | 81 ft | 18 kts | 285° |
| 2026-05-08 03:06 | -3.77753 | -38.53372 | 86 ft | 17 kts | 284° |
| 2026-05-08 03:06 | -3.77722 | -38.53485 | 85 ft | 17 kts | 284° |
| 2026-05-08 03:07 | -3.77694 | -38.53594 | 85 ft | 16 kts | 284° |
| 2026-05-08 03:07 | -3.77668 | -38.53691 | 84 ft | 13 kts | 285° |
| 2026-05-08 03:07 | -3.77674 | -38.53778 | 87 ft | 13 kts | 241° |
| 2026-05-08 03:07 | -3.77717 | -38.53854 | 87 ft | 12 kts | 244° |
| 2026-05-08 03:08 | -3.77717 | -38.53937 | 86 ft | 12 kts | 286° |
| 2026-05-08 03:08 | -3.77730 | -38.53981 | 88 ft | 5 kts | 212° |
| 2026-05-08 03:08 | -3.77762 | -38.53995 | 88 ft | 5 kts | 202° |
| 2026-05-08 03:08 | -3.77794 | -38.54008 | 90 ft | 5 kts | 202° |
| 2026-05-08 03:09 | -3.77796 | -38.54009 | 90 ft | 0 kts | 202° |